Attleboro, Massachusetts
Current Conditions -  °F | °C
As of 9:15 AM on Saturday 20 Dec 2014 (Local Time) from KSFZ Reporting Station
Overcast Overcast  
Wind Chill: 19°   Ceiling: 2800
Heat Index: 28°   Visibility: 10mi
Dew Point: 16°   Wind: 10mph
Humidity: 59%   Direction: 20°NNE
Pressure: 30.25"   Gusts: NA
Location:  41.95°N, 71.28°W
Report Text: KSFZ 201415Z 02009KT 10SM OVC028 M02/M09 A3025 RMK AO1
Loading
Personal Weather Stations






























Interactive Weather Map New forecast layout! Learn more

10-Day Weather Forecast

Advertisements
Track Severe Weather on mobile